Time;durP1;ratioP1;P1;durP2;ratioP2;P2;SDS_P1;SDS_P2;PMS_P1;PMS_P2;Temp;Humidity;BMP_temperature;BMP_pressure;BME280_temperature;BME280_humidity;BME280_pressure;Samples;Min_cycle;Max_cycle;Signal;HPM_P1;HPM_P2
2021/12/30 00:01:09;;;;;;;1999.90;999.90;;;8.10;99.90;;;;;;5093088;28;20040;-64
2021/12/30 00:03:35;;;;;;;1999.90;999.90;;;8.10;99.90;;;;;;5093416;28;20586;-64
2021/12/30 00:06:01;;;;;;;1999.90;999.90;;;8.00;99.90;;;;;;5094404;28;20173;-64
2021/12/30 00:08:27;;;;;;;1999.90;999.90;;;7.80;99.90;;;;;;5094117;28;20477;-64
2021/12/30 00:10:53;;;;;;;1999.90;999.90;;;7.70;99.90;;;;;;5093667;28;20048;-64
2021/12/30 00:13:19;;;;;;;1999.90;999.90;;;7.50;99.90;;;;;;5094384;28;20392;-64
2021/12/30 00:15:45;;;;;;;1999.90;999.90;;;7.40;99.90;;;;;;5094379;28;20056;-64
2021/12/30 00:18:11;;;;;;;1999.90;999.90;;;7.30;99.90;;;;;;5093076;28;20128;-64
2021/12/30 00:20:38;;;;;;;1999.90;999.90;;;7.30;99.90;;;;;;5094508;28;20118;-64
2021/12/30 00:23:07;;;;;;;1999.90;999.90;;;7.10;99.90;;;;;;5076305;28;20059;-64
2021/12/30 00:25:39;;;;;;;1999.90;999.90;;;7.00;99.90;;;;;;5093254;28;20397;-64
2021/12/30 00:28:07;;;;;;;1999.90;999.90;;;7.00;99.90;;;;;;5076927;28;20193;-64
2021/12/30 00:30:33;;;;;;;1999.90;999.90;;;6.90;99.90;;;;;;5094225;28;20036;-64
2021/12/30 00:32:59;;;;;;;1999.90;999.90;;;6.90;99.90;;;;;;5093023;28;20048;-64
2021/12/30 00:35:25;;;;;;;1999.90;999.90;;;6.90;99.90;;;;;;5092176;28;20040;-64
2021/12/30 00:37:50;;;;;;;1999.90;999.90;;;6.80;99.90;;;;;;5093907;28;20406;-64
2021/12/30 00:40:16;;;;;;;1999.90;999.90;;;6.80;99.90;;;;;;5092951;28;20114;-64
2021/12/30 00:42:42;;;;;;;1999.90;999.90;;;6.80;99.90;;;;;;5093803;28;20055;-64
2021/12/30 00:45:08;;;;;;;1999.90;999.90;;;6.90;99.90;;;;;;5093734;28;20040;-64
2021/12/30 00:47:34;;;;;;;1999.90;999.90;;;6.90;99.90;;;;;;5092822;28;20040;-64
2021/12/30 00:49:59;;;;;;;1999.90;999.90;;;7.10;99.90;;;;;;5093958;28;20051;-63
2021/12/30 00:52:26;;;;;;;1999.90;999.90;;;7.20;99.90;;;;;;5093264;28;20102;-64
2021/12/30 00:54:52;;;;;;;1999.90;999.90;;;7.40;99.90;;;;;;5092529;28;20036;-64
2021/12/30 00:57:18;;;;;;;1999.90;999.90;;;7.40;99.90;;;;;;5093500;28;20054;-64
2021/12/30 00:59:43;;;;;;;1999.90;999.90;;;7.30;99.90;;;;;;5093019;28;20044;-64
2021/12/30 01:02:09;;;;;;;1999.90;999.90;;;7.30;99.90;;;;;;5092917;28;20056;-64
2021/12/30 01:04:35;;;;;;;1999.90;999.90;;;7.20;99.90;;;;;;5092356;28;20055;-64
2021/12/30 01:07:01;;;;;;;1999.90;999.90;;;7.20;99.90;;;;;;5092679;28;20052;-64
2021/12/30 01:09:27;;;;;;;1999.90;999.90;;;7.20;99.90;;;;;;5093000;28;20062;-64
2021/12/30 01:11:55;;;;;;;1999.90;999.90;;;7.30;99.90;;;;;;5092720;28;20052;-64
2021/12/30 01:14:24;;;;;;;1999.90;999.90;;;7.30;99.90;;;;;;5092656;28;20044;-64
2021/12/30 01:16:55;;;;;;;1999.90;999.90;;;7.30;99.90;;;;;;5092830;28;20478;-64
2021/12/30 01:19:42;;;;;;;1999.90;999.90;;;7.30;99.90;;;;;;5093107;28;20429;-64
2021/12/30 01:22:10;;;;;;;1999.90;999.90;;;7.40;99.90;;;;;;5092077;28;20416;-64
2021/12/30 01:24:36;;;;;;;1999.90;999.90;;;7.40;99.90;;;;;;5092988;28;20052;-64
2021/12/30 01:27:03;;;;;;;1999.90;999.90;;;7.40;99.90;;;;;;5093338;28;20236;-64
2021/12/30 01:29:30;;;;;;;1999.90;999.90;;;7.40;99.90;;;;;;5092238;28;20489;-64
2021/12/30 01:31:57;;;;;;;1999.90;999.90;;;7.40;99.90;;;;;;5092764;28;20047;-64
2021/12/30 01:34:23;;;;;;;1999.90;999.90;;;7.40;99.90;;;;;;5092989;28;20040;-64
2021/12/30 01:36:49;;;;;;;1999.90;999.90;;;7.40;99.90;;;;;;5091534;28;20040;-64
2021/12/30 01:39:17;;;;;;;1999.90;999.90;;;7.30;99.90;;;;;;5092975;28;20141;-64
2021/12/30 01:41:44;;;;;;;1999.90;999.90;;;7.30;99.90;;;;;;5092922;28;20054;-64
2021/12/30 01:44:10;;;;;;;1999.90;999.90;;;7.10;99.90;;;;;;5092401;28;20131;-65
2021/12/30 01:46:40;;;;;;;1999.90;999.90;;;7.10;99.90;;;;;;5092445;28;20481;-65
2021/12/30 01:49:07;;;;;;;1999.90;999.90;;;7.00;99.90;;;;;;5092143;28;20048;-64
2021/12/30 01:51:32;;;;;;;1999.90;999.90;;;6.90;99.90;;;;;;5092994;28;20135;-64
2021/12/30 01:53:58;;;;;;;1999.90;999.90;;;6.80;99.90;;;;;;5092792;28;20083;-64
2021/12/30 01:56:24;;;;;;;1999.90;999.90;;;6.60;99.90;;;;;;5091651;28;20055;-64
2021/12/30 01:58:50;;;;;;;1999.90;999.90;;;6.40;99.90;;;;;;5092756;28;20040;-64
2021/12/30 02:01:16;;;;;;;1999.90;999.90;;;6.30;99.90;;;;;;5092370;28;20407;-64
2021/12/30 02:03:42;;;;;;;1999.90;999.90;;;6.30;99.90;;;;;;5073817;28;20051;-64
2021/12/30 02:06:08;;;;;;;1999.90;999.90;;;6.30;99.90;;;;;;5092515;28;20060;-64
2021/12/30 02:08:33;;;;;;;1999.90;999.90;;;6.50;99.90;;;;;;5074346;28;20051;-65
2021/12/30 02:10:59;;;;;;;1999.90;999.90;;;6.50;99.90;;;;;;5092075;28;20040;-64
2021/12/30 02:13:26;;;;;;;1999.90;999.90;;;6.50;99.90;;;;;;5074323;28;20060;-64
2021/12/30 02:15:52;;;;;;;1999.90;999.90;;;6.50;99.90;;;;;;5092168;28;20036;-65
2021/12/30 02:18:18;;;;;;;1999.90;999.90;;;6.50;99.90;;;;;;5091911;28;20509;-65
2021/12/30 02:20:53;;;;;;;1999.90;999.90;;;6.40;99.90;;;;;;5092352;28;20077;-65
2021/12/30 02:23:26;;;;;;;1999.90;999.90;;;6.30;99.90;;;;;;5085870;28;20048;-64
2021/12/30 02:25:55;;;;;;;1999.90;999.90;;;6.30;99.90;;;;;;5095940;28;20054;-65
2021/12/30 02:28:23;;;;;;;1999.90;999.90;;;6.30;99.90;;;;;;5096543;28;20076;-64
2021/12/30 02:30:51;;;;;;;1999.90;999.90;;;6.40;99.90;;;;;;5095933;28;20087;-65
2021/12/30 02:33:17;;;;;;;1999.90;999.90;;;6.50;99.90;;;;;;5095570;28;20486;-65
2021/12/30 02:35:43;;;;;;;1999.90;999.90;;;6.60;99.90;;;;;;5078020;28;20044;-65
2021/12/30 02:38:09;;;;;;;1999.90;999.90;;;6.60;99.90;;;;;;5095270;28;20051;-65
2021/12/30 02:40:40;;;;;;;1999.90;999.90;;;6.70;99.90;;;;;;5095845;28;20432;-64
2021/12/30 02:43:08;;;;;;;1999.90;999.90;;;6.70;99.90;;;;;;5078028;28;20059;-65
2021/12/30 02:45:33;;;;;;;1999.90;999.90;;;6.70;99.90;;;;;;5095189;28;20044;-65
2021/12/30 02:47:59;;;;;;;1999.90;999.90;;;6.80;99.90;;;;;;5096036;28;20047;-65
2021/12/30 02:50:25;;;;;;;1999.90;999.90;;;6.80;99.90;;;;;;5094955;28;20036;-64
2021/12/30 02:52:51;;;;;;;1999.90;999.90;;;6.80;99.90;;;;;;5095041;28;20570;-64
2021/12/30 02:55:16;;;;;;;1999.90;999.90;;;6.80;99.90;;;;;;5096143;28;20053;-64
2021/12/30 02:57:42;;;;;;;1999.90;999.90;;;6.80;99.90;;;;;;5095611;28;20502;-64
2021/12/30 03:00:10;;;;;;;1999.90;999.90;;;6.70;99.90;;;;;;5094864;28;20036;-65
2021/12/30 03:02:37;;;;;;;1999.90;999.90;;;6.70;99.90;;;;;;5095751;28;20506;-65
2021/12/30 03:05:05;;;;;;;1999.90;999.90;;;6.70;99.90;;;;;;5095638;28;20032;-65
2021/12/30 03:07:31;;;;;;;1999.90;999.90;;;6.70;99.90;;;;;;5093348;28;20497;-64
2021/12/30 03:09:57;;;;;;;1999.90;999.90;;;6.70;99.90;;;;;;5095533;28;20590;-64
2021/12/30 03:12:23;;;;;;;1999.90;999.90;;;6.70;99.90;;;;;;5095683;28;20118;-64
2021/12/30 03:14:49;;;;;;;1999.90;999.90;;;6.70;99.90;;;;;;5076112;28;20052;-64
2021/12/30 03:17:14;;;;;;;1999.90;999.90;;;6.80;99.90;;;;;;5095640;28;20092;-65
2021/12/30 03:19:40;;;;;;;1999.90;999.90;;;6.80;99.90;;;;;;5095613;28;20123;-64
2021/12/30 03:22:06;;;;;;;1999.90;999.90;;;6.80;99.90;;;;;;5076225;28;20044;-64
2021/12/30 03:24:32;;;;;;;1999.90;999.90;;;6.80;99.90;;;;;;5076789;28;20087;-65
2021/12/30 03:26:58;;;;;;;1999.90;999.90;;;6.70;99.90;;;;;;5095502;28;20134;-65
2021/12/30 03:29:24;;;;;;;1999.90;999.90;;;6.70;99.90;;;;;;5094104;28;20417;-65
2021/12/30 03:31:50;;;;;;;1999.90;999.90;;;6.70;99.90;;;;;;5095133;28;20144;-64
2021/12/30 03:34:16;;;;;;;1999.90;999.90;;;6.70;99.90;;;;;;5092612;28;20155;-65
2021/12/30 03:36:42;;;;;;;1999.90;999.90;;;6.70;99.90;;;;;;5075746;28;20138;-65
2021/12/30 03:39:08;;;;;;;1999.90;999.90;;;6.80;99.90;;;;;;5095342;28;20127;-65
2021/12/30 03:41:34;;;;;;;1999.90;999.90;;;6.90;99.90;;;;;;5094067;28;20066;-65
2021/12/30 03:44:01;;;;;;;1999.90;999.90;;;7.00;99.90;;;;;;5093296;28;20068;-65
2021/12/30 03:46:29;;;;;;;1999.90;999.90;;;7.00;99.90;;;;;;5095101;28;20101;-65
2021/12/30 03:48:55;;;;;;;1999.90;999.90;;;7.00;99.90;;;;;;5094415;28;20428;-64
2021/12/30 03:51:24;;;;;;;1999.90;999.90;;;7.00;99.90;;;;;;5094024;28;20093;-65
2021/12/30 03:53:53;;;;;;;1999.90;999.90;;;7.10;99.90;;;;;;5094836;28;20479;-65
2021/12/30 03:56:23;;;;;;;1999.90;999.90;;;7.10;99.90;;;;;;5093830;28;20080;-65
2021/12/30 03:58:49;;;;;;;1999.90;999.90;;;7.20;99.90;;;;;;5094211;28;20398;-65
2021/12/30 04:01:18;;;;;;;1999.90;999.90;;;7.20;99.90;;;;;;5094560;28;20054;-65
2021/12/30 04:03:44;;;;;;;1999.90;999.90;;;7.20;99.90;;;;;;5094167;28;20048;-64
2021/12/30 04:06:10;;;;;;;1999.90;999.90;;;7.20;99.90;;;;;;5076110;28;20513;-65
2021/12/30 04:08:37;;;;;;;1999.90;999.90;;;7.30;99.90;;;;;;5094080;28;20044;-64
2021/12/30 04:11:03;;;;;;;1999.90;999.90;;;7.30;99.90;;;;;;5099935;28;20052;-64
2021/12/30 04:13:30;;;;;;;1999.90;999.90;;;7.20;99.90;;;;;;5104766;28;20409;-64
2021/12/30 04:15:56;;;;;;;1999.90;999.90;;;7.20;99.90;;;;;;5103194;28;20066;-64
2021/12/30 04:18:22;;;;;;;1999.90;999.90;;;7.10;99.90;;;;;;5093798;28;20055;-64
2021/12/30 04:20:48;;;;;;;1999.90;999.90;;;7.20;99.90;;;;;;5094085;28;20055;-64
2021/12/30 04:23:14;;;;;;;1999.90;999.90;;;7.30;99.90;;;;;;5094435;28;20047;-64
2021/12/30 04:25:40;;;;;;;1999.90;999.90;;;7.30;99.90;;;;;;5086782;28;20032;-65
2021/12/30 04:28:06;;;;;;;1999.90;999.90;;;7.40;99.90;;;;;;5094033;28;20532;-65
2021/12/30 04:30:31;;;;;;;1999.90;999.90;;;7.30;99.90;;;;;;5094300;28;20036;-65
2021/12/30 04:32:57;;;;;;;1999.90;999.90;;;7.30;99.90;;;;;;5093425;28;20062;-64
2021/12/30 04:35:23;;;;;;;1999.90;999.90;;;7.30;99.90;;;;;;5075585;28;20048;-65
2021/12/30 04:37:49;;;;;;;1999.90;999.90;;;7.30;99.90;;;;;;5074698;28;20060;-64
2021/12/30 04:40:15;;;;;;;1999.90;999.90;;;7.30;99.90;;;;;;5093643;28;20119;-64
2021/12/30 04:42:42;;;;;;;1999.90;999.90;;;7.20;99.90;;;;;;5093807;28;20055;-64
2021/12/30 04:45:10;;;;;;;1999.90;999.90;;;7.10;99.90;;;;;;5092794;28;20456;-65
2021/12/30 04:47:38;;;;;;;1999.90;999.90;;;7.10;99.90;;;;;;5093627;28;20048;-64
2021/12/30 04:50:07;;;;;;;1999.90;999.90;;;7.20;99.90;;;;;;5093852;28;20048;-65
2021/12/30 04:52:32;;;;;;;1999.90;999.90;;;7.30;99.90;;;;;;5092101;28;20555;-65
2021/12/30 04:54:58;;;;;;;1999.90;999.90;;;7.40;99.90;;;;;;5093856;28;20044;-64
2021/12/30 04:57:24;;;;;;;1999.90;999.90;;;7.60;99.90;;;;;;5093544;28;20048;-65
2021/12/30 04:59:50;;;;;;;1999.90;999.90;;;7.80;99.90;;;;;;5092748;28;20044;-65
2021/12/30 05:02:15;;;;;;;1999.90;999.90;;;7.70;99.90;;;;;;5093278;28;20109;-65
2021/12/30 05:04:41;;;;;;;1999.90;999.90;;;7.90;99.90;;;;;;5093384;28;20052;-65
2021/12/30 05:07:07;;;;;;;1999.90;999.90;;;7.90;99.90;;;;;;5092522;28;20624;-65
2021/12/30 05:09:33;;;;;;;1999.90;999.90;;;7.90;99.90;;;;;;5093026;28;20052;-65
2021/12/30 05:11:59;;;;;;;1999.90;999.90;;;7.90;99.90;;;;;;5093478;28;20048;-65
2021/12/30 05:14:25;;;;;;;1999.90;999.90;;;8.00;99.90;;;;;;5092210;28;20073;-65
2021/12/30 05:16:52;;;;;;;1999.90;999.90;;;8.00;99.90;;;;;;5093376;28;20048;-65
2021/12/30 05:19:19;;;;;;;1999.90;999.90;;;8.10;99.90;;;;;;5093028;28;20047;-65
2021/12/30 05:21:45;;;;;;;1999.90;999.90;;;8.20;99.90;;;;;;5091991;28;20475;-65
2021/12/30 05:24:11;;;;;;;1999.90;999.90;;;8.10;99.90;;;;;;5093181;28;20048;-64
2021/12/30 05:26:36;;;;;;;1999.90;999.90;;;8.10;99.90;;;;;;5092997;28;20046;-64
2021/12/30 05:29:03;;;;;;;1999.90;999.90;;;8.00;99.90;;;;;;5074089;28;20044;-65
2021/12/30 05:31:29;;;;;;;1999.90;999.90;;;8.00;99.90;;;;;;5093149;28;20036;-65
2021/12/30 05:33:55;;;;;;;1999.90;999.90;;;8.00;99.90;;;;;;5092725;28;20055;-64
2021/12/30 05:36:21;;;;;;;1999.90;999.90;;;8.10;99.90;;;;;;5091784;28;20421;-65
2021/12/30 05:38:47;;;;;;;1999.90;999.90;;;8.10;99.90;;;;;;5093169;28;20044;-65
2021/12/30 05:41:13;;;;;;;1999.90;999.90;;;8.10;99.90;;;;;;5092225;28;20044;-65
2021/12/30 05:43:39;;;;;;;1999.90;999.90;;;8.20;99.90;;;;;;5092635;28;20044;-65
2021/12/30 05:46:05;;;;;;;1999.90;999.90;;;8.30;99.90;;;;;;5092739;28;20048;-65
2021/12/30 05:48:31;;;;;;;1999.90;999.90;;;8.30;99.90;;;;;;5092393;28;20112;-65
2021/12/30 05:51:03;;;;;;;1999.90;999.90;;;8.40;99.90;;;;;;5092580;28;20119;-65
2021/12/30 05:53:30;;;;;;;1999.90;999.90;;;8.50;99.90;;;;;;5092750;28;20063;-65
2021/12/30 05:55:56;;;;;;;1999.90;999.90;;;8.60;99.90;;;;;;5092072;28;20040;-65
2021/12/30 05:58:22;;;;;;;1999.90;999.90;;;8.60;99.90;;;;;;5094077;28;20542;-65
2021/12/30 06:00:49;;;;;;;1999.90;999.90;;;8.70;99.90;;;;;;5096938;28;20036;-65
2021/12/30 06:03:18;;;;;;;1999.90;999.90;;;8.70;99.90;;;;;;5077846;28;20074;-65
2021/12/30 06:05:45;;;;;;;1999.90;999.90;;;8.80;99.90;;;;;;5096707;28;20398;-65
2021/12/30 06:08:11;;;;;;;1999.90;999.90;;;8.80;99.90;;;;;;5096943;28;20051;-65
2021/12/30 06:10:37;;;;;;;1999.90;999.90;;;8.90;99.90;;;;;;5095904;28;20418;-66
2021/12/30 06:13:03;;;;;;;1999.90;999.90;;;8.90;99.90;;;;;;5096202;28;20052;-66
2021/12/30 06:15:29;;;;;;;1999.90;999.90;;;8.90;99.90;;;;;;5095667;28;20039;-65
2021/12/30 06:17:55;;;;;;;1999.90;999.90;;;8.90;99.90;;;;;;5095799;28;20448;-66
2021/12/30 06:20:20;;;;;;;1999.90;999.90;;;8.90;99.90;;;;;;5096040;28;20548;-65
2021/12/30 06:22:48;;;;;;;1999.90;999.90;;;8.80;99.90;;;;;;5096671;28;20044;-65
2021/12/30 06:25:14;;;;;;;1999.90;999.90;;;8.80;99.90;;;;;;5096074;28;20040;-65
2021/12/30 06:27:41;;;;;;;1999.90;999.90;;;8.70;99.90;;;;;;5096209;28;20534;-65
2021/12/30 06:30:08;;;;;;;1999.90;999.90;;;8.70;99.90;;;;;;5096422;28;20093;-65
2021/12/30 06:32:34;;;;;;;1999.90;999.90;;;8.80;99.90;;;;;;5095599;28;20067;-65
2021/12/30 06:34:59;;;;;;;1999.90;999.90;;;8.80;99.90;;;;;;5096163;28;20401;-64
2021/12/30 06:37:25;;;;;;;1999.90;999.90;;;8.80;99.90;;;;;;5095432;28;20047;-65
2021/12/30 06:39:51;;;;;;;1999.90;999.90;;;8.80;99.90;;;;;;5096124;28;20123;-66
2021/12/30 06:42:17;;;;;;;1999.90;999.90;;;8.80;99.90;;;;;;5096072;28;20050;-65
2021/12/30 06:44:42;;;;;;;1999.90;999.90;;;8.80;99.90;;;;;;5095332;28;20131;-65
2021/12/30 06:47:09;;;;;;;1999.90;999.90;;;8.90;99.90;;;;;;5095928;28;20055;-65
2021/12/30 06:49:37;;;;;;;1999.90;999.90;;;8.80;99.90;;;;;;5096020;28;20044;-65
2021/12/30 06:52:06;;;;;;;1999.90;999.90;;;8.80;99.90;;;;;;5095574;28;20463;-65
2021/12/30 06:54:32;;;;;;;1999.90;999.90;;;8.90;99.90;;;;;;5096015;28;20044;-66
2021/12/30 06:57:00;;;;;;;1999.90;999.90;;;9.00;99.90;;;;;;5094974;28;20055;-66
2021/12/30 06:59:27;;;;;;;1999.90;999.90;;;9.10;99.90;;;;;;5095048;28;20479;-66
2021/12/30 07:01:56;;;;;;;1999.90;999.90;;;9.20;99.90;;;;;;5096240;28;20421;-66
2021/12/30 07:04:22;;;;;;;1999.90;999.90;;;9.30;99.90;;;;;;5095231;28;20351;-66
2021/12/30 07:06:47;;;;;;;1999.90;999.90;;;9.40;99.90;;;;;;5094898;28;20063;-66
2021/12/30 07:09:13;;;;;;;1999.90;999.90;;;9.40;99.90;;;;;;5095386;28;20066;-66
2021/12/30 07:11:39;;;;;;;1999.90;999.90;;;9.50;99.90;;;;;;5081434;28;20049;-66
2021/12/30 07:14:05;;;;;;;1999.90;999.90;;;9.40;99.90;;;;;;5101228;28;20431;-66
2021/12/30 07:16:31;;;;;;;1999.90;999.90;;;9.50;99.90;;;;;;5103639;28;20040;-67
2021/12/30 07:18:56;;;;;;;1999.90;999.90;;;9.60;99.90;;;;;;5095488;28;20070;-66
2021/12/30 07:21:22;;;;;;;1999.90;999.90;;;9.60;99.90;;;;;;5094681;28;20040;-66
2021/12/30 07:23:48;;;;;;;1999.90;999.90;;;9.70;99.90;;;;;;5089559;28;20047;-66
2021/12/30 07:26:14;;;;;;;1999.90;999.90;;;9.70;99.90;;;;;;5095102;28;20052;-66
2021/12/30 07:28:40;;;;;;;1999.90;999.90;;;9.60;99.90;;;;;;5094831;28;20149;-66
2021/12/30 07:31:06;;;;;;;1999.90;999.90;;;9.70;99.90;;;;;;5094773;28;20469;-67
2021/12/30 07:33:32;;;;;;;1999.90;999.90;;;9.70;99.90;;;;;;5094507;28;20115;-67
2021/12/30 07:35:57;;;;;;;1999.90;999.90;;;9.70;99.90;;;;;;5076902;28;20482;-66
2021/12/30 07:38:23;;;;;;;1999.90;999.90;;;9.70;99.90;;;;;;5095048;28;20055;-67
2021/12/30 07:40:49;;;;;;;1999.90;999.90;;;9.70;99.90;;;;;;5093717;28;20478;-66
2021/12/30 07:43:15;;;;;;;1999.90;999.90;;;9.80;99.90;;;;;;5095390;28;20063;-67
2021/12/30 07:45:41;;;;;;;1999.90;999.90;;;9.80;99.90;;;;;;5095091;28;20048;-67
2021/12/30 07:48:07;;;;;;;1999.90;999.90;;;9.80;99.90;;;;;;5094184;28;20398;-67
2021/12/30 07:50:32;;;;;;;1999.90;999.90;;;9.90;99.90;;;;;;5094604;28;20051;-67
2021/12/30 07:52:59;;;;;;;1999.90;999.90;;;10.10;99.90;;;;;;5079485;28;20059;-68
2021/12/30 07:55:25;;;;;;;1999.90;999.90;;;10.20;99.90;;;;;;5093739;28;20101;-68
2021/12/30 07:57:55;;;;;;;1999.90;999.90;;;10.40;99.90;;;;;;5094201;28;20067;-67
2021/12/30 08:00:21;;;;;;;1999.90;999.90;;;10.20;99.90;;;;;;5094548;28;20252;-68
2021/12/30 08:02:47;;;;;;;1999.90;999.90;;;10.20;99.90;;;;;;5093845;28;20048;-68
2021/12/30 08:05:16;;;;;;;1999.90;999.90;;;10.20;99.90;;;;;;5094723;28;20044;-68
2021/12/30 08:07:45;;;;;;;1999.90;999.90;;;10.50;99.90;;;;;;5094241;28;20044;-67
2021/12/30 08:10:14;;;;;;;1999.90;999.90;;;10.60;99.90;;;;;;5089163;28;20048;-67
2021/12/30 08:12:42;;;;;;;1999.90;999.90;;;11.30;99.90;;;;;;5087733;28;20433;-68
2021/12/30 08:15:08;;;;;;;1999.90;999.90;;;10.50;99.90;;;;;;5094447;28;20044;-68
2021/12/30 08:17:35;;;;;;;1999.90;999.90;;;10.20;99.90;;;;;;5093138;28;20482;-68
2021/12/30 08:20:03;;;;;;;1999.90;999.90;;;10.50;99.90;;;;;;5093967;28;20036;-68
2021/12/30 08:22:28;;;;;;;1999.90;999.90;;;10.20;99.90;;;;;;5081316;28;20078;-68
2021/12/30 08:24:54;;;;;;;1999.90;999.90;;;10.80;99.90;;;;;;5096119;28;20032;-67
2021/12/30 08:27:22;;;;;;;1999.90;999.90;;;10.10;99.90;;;;;;5093757;28;20105;-68
2021/12/30 08:29:48;;;;;;;1999.90;999.90;;;10.20;99.90;;;;;;5075103;28;20044;-68
2021/12/30 08:32:16;;;;;;;1999.90;999.90;;;;;;;;;;5093432;28;20063;-67
2021/12/30 08:34:46;;;;;;;1999.90;999.90;;;10.30;99.90;;;;;;5092036;28;20392;-67
2021/12/30 08:37:16;;;;;;;1999.90;999.90;;;;;;;;;;5098434;28;20455;-68
2021/12/30 08:39:45;;;;;;;1999.90;999.90;;;10.10;99.90;;;;;;5103898;28;20044;-68
2021/12/30 08:42:22;;;;;;;1999.90;999.90;;;10.10;99.90;;;;;;5100503;28;20123;-68
2021/12/30 08:44:49;;;;;;;1999.90;999.90;;;;;;;;;;5083182;28;20060;-68
2021/12/30 08:47:16;;;;;;;1999.90;999.90;;;10.50;99.90;;;;;;5102076;28;20082;-68
2021/12/30 08:49:45;;;;;;;1999.90;999.90;;;10.20;99.90;;;;;;5098129;28;20432;-68
2021/12/30 08:52:12;;;;;;;1999.90;999.90;;;10.20;99.90;;;;;;5098985;28;20499;-68
2021/12/30 08:54:38;;;;;;;1999.90;999.90;;;10.30;99.90;;;;;;5087925;28;20044;-67
2021/12/30 08:57:04;;;;;;;1999.90;999.90;;;10.40;99.90;;;;;;5080506;28;20036;-67
2021/12/30 08:59:30;;;;;;;1999.90;999.90;;;10.40;99.90;;;;;;5092365;28;20032;-67
2021/12/30 09:01:56;;;;;;;1999.90;999.90;;;10.40;99.90;;;;;;5092765;28;20047;-71
2021/12/30 09:04:22;;;;;;;1999.90;999.90;;;10.50;99.90;;;;;;5093190;28;20044;-68
2021/12/30 09:06:48;;;;;;;1999.90;999.90;;;10.30;99.90;;;;;;5091985;28;20058;-68
2021/12/30 09:09:13;;;;;;;1999.90;999.90;;;10.50;99.90;;;;;;5096477;28;20502;-68
2021/12/30 09:11:39;;;;;;;1999.90;999.90;;;11.00;99.90;;;;;;5100616;28;20107;-67
2021/12/30 09:14:05;;;;;;;1999.90;999.90;;;10.60;99.90;;;;;;5102976;28;20482;-68
2021/12/30 09:16:30;;;;;;;1999.90;999.90;;;10.60;99.90;;;;;;5093352;28;20051;-67
2021/12/30 09:18:57;;;;;;;1999.90;999.90;;;10.70;99.90;;;;;;5092417;28;20060;-67
2021/12/30 09:21:22;;;;;;;1999.90;999.90;;;10.70;99.90;;;;;;5092291;28;20396;-67
2021/12/30 09:23:48;;;;;;;1999.90;999.90;;;10.80;99.90;;;;;;5098218;28;20040;-68
2021/12/30 09:26:14;;;;;;;1999.90;999.90;;;10.80;99.90;;;;;;5101169;28;20058;-67
2021/12/30 09:28:40;;;;;;;1999.90;999.90;;;11.50;99.90;;;;;;5107843;28;20133;-67
2021/12/30 09:31:06;;;;;;;1999.90;999.90;;;10.90;99.90;;;;;;5113802;28;20090;-67
2021/12/30 09:33:32;;;;;;;1999.90;999.90;;;11.00;99.90;;;;;;5112228;28;20058;-68
2021/12/30 09:36:01;;;;;;;1999.90;999.90;;;11.00;99.90;;;;;;5099960;28;20055;-68
2021/12/30 09:38:27;;;;;;;1999.90;999.90;;;11.00;99.90;;;;;;5093225;28;20482;-68
2021/12/30 09:40:53;;;;;;;1999.90;999.90;;;11.10;99.90;;;;;;5092048;28;20040;-67
2021/12/30 09:43:18;;;;;;;1999.90;999.90;;;11.10;99.90;;;;;;5074488;28;20075;-68
2021/12/30 09:45:45;;;;;;;1999.90;999.90;;;11.10;99.90;;;;;;5092946;28;20094;-68
2021/12/30 09:48:14;;;;;;;1999.90;999.90;;;11.10;99.90;;;;;;5091835;28;20101;-68
2021/12/30 09:50:43;;;;;;;1999.90;999.90;;;11.20;99.90;;;;;;5092683;28;20474;-68
2021/12/30 09:53:09;;;;;;;1999.90;999.90;;;11.30;99.90;;;;;;5092824;28;20488;-68
2021/12/30 09:55:36;;;;;;;1999.90;999.90;;;11.90;99.90;;;;;;5091620;28;20514;-68
2021/12/30 09:58:02;;;;;;;1999.90;999.90;;;11.40;99.90;;;;;;5099289;28;20094;-67
2021/12/30 10:00:28;;;;;;;1999.90;999.90;;;11.80;99.90;;;;;;5100703;28;20040;-67
2021/12/30 10:02:54;;;;;;;1999.90;999.90;;;11.30;99.90;;;;;;5091533;28;20040;-69
2021/12/30 10:05:24;;;;;;;1999.90;999.90;;;11.40;99.90;;;;;;5091296;28;20554;-68
2021/12/30 10:08:06;;;;;;;1999.90;999.90;;;11.30;99.90;;;;;;5092928;28;20474;-69
2021/12/30 10:10:36;;;;;;;1999.90;999.90;;;11.30;99.90;;;;;;5091091;28;20052;-68
2021/12/30 10:13:23;;;;;;;1999.90;999.90;;;11.30;99.90;;;;;;5094769;28;20052;-68
2021/12/30 10:15:53;;;;;;;1999.90;999.90;;;11.30;99.90;;;;;;5093067;28;20390;-68
2021/12/30 10:18:19;;;;;;;1999.90;999.90;;;11.40;99.90;;;;;;5092656;28;20047;-69
2021/12/30 10:20:47;;;;;;;1999.90;999.90;;;11.40;99.90;;;;;;5092441;28;20458;-67
2021/12/30 10:23:22;;;;;;;1999.90;999.90;;;11.40;99.90;;;;;;5091575;28;20047;-68
2021/12/30 10:25:50;;;;;;;1999.90;999.90;;;11.50;99.90;;;;;;5092434;28;20422;-68
2021/12/30 10:28:19;;;;;;;1999.90;999.90;;;11.30;99.90;;;;;;5091993;28;20032;-68
2021/12/30 10:30:45;;;;;;;1999.90;999.90;;;11.40;99.90;;;;;;5091533;28;20052;-68
2021/12/30 10:33:14;;;;;;;1999.90;999.90;;;11.50;99.90;;;;;;5092722;28;20055;-68
2021/12/30 10:35:41;;;;;;;1999.90;999.90;;;11.60;99.90;;;;;;5074269;28;20044;-66
2021/12/30 10:38:09;;;;;;;1999.90;999.90;;;11.50;99.90;;;;;;5091265;28;20047;-68
2021/12/30 10:40:40;;;;;;;1999.90;999.90;;;11.60;99.90;;;;;;5074646;28;20553;-68
2021/12/30 10:43:26;;;;;;;1999.90;999.90;;;11.60;99.90;;;;;;5103826;28;20043;-67
2021/12/30 10:46:02;;;;;;;1999.90;999.90;;;11.60;99.90;;;;;;5104226;28;20043;-67
2021/12/30 10:48:27;;;;;;;1999.90;999.90;;;11.60;99.90;;;;;;5116616;28;20040;-68
2021/12/30 10:51:26;;;;;;;1999.90;999.90;;;11.50;99.90;;;;;;5097439;28;20052;-67
2021/12/30 10:53:54;;;;;;;1999.90;999.90;;;11.60;99.90;;;;;;5116197;28;20048;-68
2021/12/30 10:56:32;;;;;;;1999.90;999.90;;;11.60;99.90;;;;;;5096649;28;20044;-68
2021/12/30 10:59:18;;;;;;;1999.90;999.90;;;11.60;99.90;;;;;;5095136;28;20055;-67
2021/12/30 11:01:48;;;;;;;1999.90;999.90;;;11.60;99.90;;;;;;5094238;28;20112;-67
2021/12/30 11:04:14;;;;;;;1999.90;999.90;;;11.60;99.90;;;;;;5077318;28;20383;-67
2021/12/30 11:06:40;;;;;;;1999.90;999.90;;;11.60;99.90;;;;;;5095150;28;20405;-68
2021/12/30 11:09:14;;;;;;;1999.90;999.90;;;11.70;99.90;;;;;;5095358;28;20059;-65
2021/12/30 11:11:46;;;;;;;1999.90;999.90;;;11.60;99.90;;;;;;5074302;28;20064;-67
2021/12/30 11:14:18;;;;;;;1999.90;999.90;;;11.60;99.90;;;;;;5095451;28;20048;-66
2021/12/30 11:16:58;;;;;;;1999.90;999.90;;;11.60;99.90;;;;;;5095109;28;20048;-65
2021/12/30 11:19:26;;;;;;;1999.90;999.90;;;11.60;99.90;;;;;;5076774;28;20131;-67
2021/12/30 11:21:53;;;;;;;1999.90;999.90;;;11.60;99.90;;;;;;5095061;28;20066;-67
2021/12/30 11:24:20;;;;;;;1999.90;999.90;;;11.70;99.90;;;;;;5088130;28;20044;-65
2021/12/30 11:26:47;;;;;;;1999.90;999.90;;;11.60;99.90;;;;;;5102729;28;20047;-68
2021/12/30 11:29:13;;;;;;;1999.90;999.90;;;11.70;99.90;;;;;;5087324;28;20490;-66
2021/12/30 11:31:38;;;;;;;1999.90;999.90;;;11.70;99.90;;;;;;5103520;28;20057;-67
2021/12/30 11:34:04;;;;;;;1999.90;999.90;;;11.70;99.90;;;;;;5115161;28;20035;-66
2021/12/30 11:36:31;;;;;;;1999.90;999.90;;;11.70;99.90;;;;;;5115600;28;20132;-68
2021/12/30 11:38:58;;;;;;;1999.90;999.90;;;11.70;99.90;;;;;;5109518;28;20040;-66
2021/12/30 11:41:26;;;;;;;1999.90;999.90;;;11.70;99.90;;;;;;5105370;28;20040;-68
2021/12/30 11:43:52;;;;;;;1999.90;999.90;;;11.60;99.90;;;;;;5105174;28;20482;-66
2021/12/30 11:46:37;;;;;;;1999.90;999.90;;;11.60;99.90;;;;;;5105206;28;20080;-67
2021/12/30 11:49:05;;;;;;;1999.90;999.90;;;11.70;99.90;;;;;;5100902;28;20039;-68
2021/12/30 11:51:43;;;;;;;1999.90;999.90;;;11.70;99.90;;;;;;5102727;28;20148;-67
2021/12/30 11:54:31;;;;;;;1999.90;999.90;;;11.60;99.90;;;;;;5104523;28;20477;-65
2021/12/30 11:57:28;;;;;;;1999.90;999.90;;;11.60;99.90;;;;;;5100731;28;20056;-67
2021/12/30 11:59:57;;;;;;;1999.90;999.90;;;11.60;99.90;;;;;;5100923;28;20098;-65
2021/12/30 12:02:30;;;;;;;1999.90;999.90;;;11.50;99.90;;;;;;5094109;28;20044;-66
2021/12/30 12:04:56;;;;;;;1999.90;999.90;;;11.50;99.90;;;;;;5094624;28;20047;-65
2021/12/30 12:07:22;;;;;;;1999.90;999.90;;;11.50;99.90;;;;;;5096066;28;20036;-66